sensor_id;sensor_type;location;lat;lon;timestamp;temperature;humidity
27900;DHT22;15243;50.726;7.080;2023-03-14T00:01:18;11.00;99.90
27900;DHT22;15243;50.726;7.080;2023-03-14T00:03:46;11.00;99.90
27900;DHT22;15243;50.726;7.080;2023-03-14T00:06:13;11.00;99.90
27900;DHT22;15243;50.726;7.080;2023-03-14T00:08:41;11.00;99.90
27900;DHT22;15243;50.726;7.080;2023-03-14T00:11:11;11.00;99.90
27900;DHT22;15243;50.726;7.080;2023-03-14T00:13:39;11.00;99.90
27900;DHT22;15243;50.726;7.080;2023-03-14T00:16:08;11.10;99.90
27900;DHT22;15243;50.726;7.080;2023-03-14T00:18:35;11.20;99.90
27900;DHT22;15243;50.726;7.080;2023-03-14T00:21:04;11.20;99.90
27900;DHT22;15243;50.726;7.080;2023-03-14T00:23:32;11.30;99.90
27900;DHT22;15243;50.726;7.080;2023-03-14T00:26:01;11.30;99.90
27900;DHT22;15243;50.726;7.080;2023-03-14T00:28:28;11.30;99.90
27900;DHT22;15243;50.726;7.080;2023-03-14T00:30:55;11.30;99.90
27900;DHT22;15243;50.726;7.080;2023-03-14T00:33:23;11.50;99.90
27900;DHT22;15243;50.726;7.080;2023-03-14T00:35:58;11.50;99.90
27900;DHT22;15243;50.726;7.080;2023-03-14T00:38:26;11.40;99.90
27900;DHT22;15243;50.726;7.080;2023-03-14T00:40:54;11.50;99.90
27900;DHT22;15243;50.726;7.080;2023-03-14T00:43:21;11.50;99.90
27900;DHT22;15243;50.726;7.080;2023-03-14T00:45:49;11.50;99.90
27900;DHT22;15243;50.726;7.080;2023-03-14T00:48:16;11.50;99.90
27900;DHT22;15243;50.726;7.080;2023-03-14T00:50:44;11.50;99.90
27900;DHT22;15243;50.726;7.080;2023-03-14T00:53:11;11.50;99.90
27900;DHT22;15243;50.726;7.080;2023-03-14T00:55:42;11.40;99.90
27900;DHT22;15243;50.726;7.080;2023-03-14T00:58:10;11.50;99.90
27900;DHT22;15243;50.726;7.080;2023-03-14T01:00:37;11.50;99.90
27900;DHT22;15243;50.726;7.080;2023-03-14T01:03:04;11.50;99.90
27900;DHT22;15243;50.726;7.080;2023-03-14T01:05:31;11.50;99.90
27900;DHT22;15243;50.726;7.080;2023-03-14T01:07:58;11.60;99.90
27900;DHT22;15243;50.726;7.080;2023-03-14T01:10:25;11.60;99.90
27900;DHT22;15243;50.726;7.080;2023-03-14T01:12:51;11.60;99.90
27900;DHT22;15243;50.726;7.080;2023-03-14T01:15:19;11.50;99.90
27900;DHT22;15243;50.726;7.080;2023-03-14T01:17:46;11.60;99.90
27900;DHT22;15243;50.726;7.080;2023-03-14T01:20:14;11.60;99.90
27900;DHT22;15243;50.726;7.080;2023-03-14T01:22:42;11.60;99.90
27900;DHT22;15243;50.726;7.080;2023-03-14T01:25:13;11.60;99.90
27900;DHT22;15243;50.726;7.080;2023-03-14T01:27:40;11.60;99.90
27900;DHT22;15243;50.726;7.080;2023-03-14T01:30:07;11.70;99.90
27900;DHT22;15243;50.726;7.080;2023-03-14T01:32:35;11.70;99.90
27900;DHT22;15243;50.726;7.080;2023-03-14T01:35:02;11.70;99.90
27900;DHT22;15243;50.726;7.080;2023-03-14T01:37:29;11.70;99.90
27900;DHT22;15243;50.726;7.080;2023-03-14T01:39:56;11.70;99.90
27900;DHT22;15243;50.726;7.080;2023-03-14T01:42:23;11.60;99.90
27900;DHT22;15243;50.726;7.080;2023-03-14T01:47:18;11.70;99.90
27900;DHT22;15243;50.726;7.080;2023-03-14T01:50:13;11.70;99.90
27900;DHT22;15243;50.726;7.080;2023-03-14T01:52:45;11.70;99.90
27900;DHT22;15243;50.726;7.080;2023-03-14T01:55:16;11.60;99.90
27900;DHT22;15243;50.726;7.080;2023-03-14T01:58:04;11.50;99.90
27900;DHT22;15243;50.726;7.080;2023-03-14T02:00:31;11.50;99.90
27900;DHT22;15243;50.726;7.080;2023-03-14T02:03:12;11.40;99.90
27900;DHT22;15243;50.726;7.080;2023-03-14T02:05:41;11.40;99.90
27900;DHT22;15243;50.726;7.080;2023-03-14T02:08:15;11.30;99.90
27900;DHT22;15243;50.726;7.080;2023-03-14T02:10:46;11.20;99.90
27900;DHT22;15243;50.726;7.080;2023-03-14T02:13:16;11.10;99.90
27900;DHT22;15243;50.726;7.080;2023-03-14T02:15:43;11.10;99.90
27900;DHT22;15243;50.726;7.080;2023-03-14T02:18:10;11.10;99.90
27900;DHT22;15243;50.726;7.080;2023-03-14T02:20:51;11.10;99.90
27900;DHT22;15243;50.726;7.080;2023-03-14T02:23:35;11.10;99.90
27900;DHT22;15243;50.726;7.080;2023-03-14T02:26:15;11.10;99.90
27900;DHT22;15243;50.726;7.080;2023-03-14T02:28:44;10.90;99.90
27900;DHT22;15243;50.726;7.080;2023-03-14T02:31:11;10.90;99.90
27900;DHT22;15243;50.726;7.080;2023-03-14T02:33:38;10.90;99.90
27900;DHT22;15243;50.726;7.080;2023-03-14T02:36:09;11.00;99.90
27900;DHT22;15243;50.726;7.080;2023-03-14T02:38:56;10.90;99.90
27900;DHT22;15243;50.726;7.080;2023-03-14T02:41:26;10.80;99.90
27900;DHT22;15243;50.726;7.080;2023-03-14T02:43:53;10.80;99.90
27900;DHT22;15243;50.726;7.080;2023-03-14T02:46:21;10.80;99.90
27900;DHT22;15243;50.726;7.080;2023-03-14T02:48:53;10.90;99.90
27900;DHT22;15243;50.726;7.080;2023-03-14T02:51:21;10.80;99.90
27900;DHT22;15243;50.726;7.080;2023-03-14T02:53:48;10.80;99.90
27900;DHT22;15243;50.726;7.080;2023-03-14T02:56:15;10.80;99.90
27900;DHT22;15243;50.726;7.080;2023-03-14T02:58:42;10.80;99.90
27900;DHT22;15243;50.726;7.080;2023-03-14T03:01:09;10.80;99.90
27900;DHT22;15243;50.726;7.080;2023-03-14T03:03:36;10.80;99.90
27900;DHT22;15243;50.726;7.080;2023-03-14T03:06:03;10.80;99.90
27900;DHT22;15243;50.726;7.080;2023-03-14T03:08:31;10.80;99.90
27900;DHT22;15243;50.726;7.080;2023-03-14T03:10:58;10.70;99.90
27900;DHT22;15243;50.726;7.080;2023-03-14T03:13:25;10.70;99.90
27900;DHT22;15243;50.726;7.080;2023-03-14T03:15:53;10.70;99.90
27900;DHT22;15243;50.726;7.080;2023-03-14T03:18:20;10.70;99.90
27900;DHT22;15243;50.726;7.080;2023-03-14T03:20:47;10.60;99.90
27900;DHT22;15243;50.726;7.080;2023-03-14T03:23:14;10.70;99.90
27900;DHT22;15243;50.726;7.080;2023-03-14T03:25:41;10.70;99.90
27900;DHT22;15243;50.726;7.080;2023-03-14T03:28:07;10.70;99.90
27900;DHT22;15243;50.726;7.080;2023-03-14T03:30:39;10.70;99.90
27900;DHT22;15243;50.726;7.080;2023-03-14T03:33:07;10.80;99.90
27900;DHT22;15243;50.726;7.080;2023-03-14T03:35:34;10.70;99.90
27900;DHT22;15243;50.726;7.080;2023-03-14T03:38:00;10.80;99.90
27900;DHT22;15243;50.726;7.080;2023-03-14T03:40:27;10.80;99.90
27900;DHT22;15243;50.726;7.080;2023-03-14T03:42:54;10.80;99.90
27900;DHT22;15243;50.726;7.080;2023-03-14T03:45:21;10.80;99.90
27900;DHT22;15243;50.726;7.080;2023-03-14T03:47:48;10.70;99.90
27900;DHT22;15243;50.726;7.080;2023-03-14T03:50:15;10.80;99.90
27900;DHT22;15243;50.726;7.080;2023-03-14T03:52:41;10.80;99.90
27900;DHT22;15243;50.726;7.080;2023-03-14T03:55:09;10.70;99.90
27900;DHT22;15243;50.726;7.080;2023-03-14T03:57:35;10.70;99.90
27900;DHT22;15243;50.726;7.080;2023-03-14T04:00:04;10.70;99.90
27900;DHT22;15243;50.726;7.080;2023-03-14T04:02:32;10.70;99.90
27900;DHT22;15243;50.726;7.080;2023-03-14T04:04:59;10.70;99.90
27900;DHT22;15243;50.726;7.080;2023-03-14T04:07:26;10.70;99.90
27900;DHT22;15243;50.726;7.080;2023-03-14T04:09:52;10.60;99.90
27900;DHT22;15243;50.726;7.080;2023-03-14T04:12:19;10.70;99.90
27900;DHT22;15243;50.726;7.080;2023-03-14T04:14:46;10.60;99.90
27900;DHT22;15243;50.726;7.080;2023-03-14T04:17:13;10.60;99.90
27900;DHT22;15243;50.726;7.080;2023-03-14T04:19:40;10.60;99.90
27900;DHT22;15243;50.726;7.080;2023-03-14T04:22:07;10.60;99.90
27900;DHT22;15243;50.726;7.080;2023-03-14T04:24:35;10.50;99.90
27900;DHT22;15243;50.726;7.080;2023-03-14T04:27:01;10.60;99.90
27900;DHT22;15243;50.726;7.080;2023-03-14T04:29:28;10.60;99.90
27900;DHT22;15243;50.726;7.080;2023-03-14T04:31:55;10.60;99.90
27900;DHT22;15243;50.726;7.080;2023-03-14T04:34:22;10.60;99.90
27900;DHT22;15243;50.726;7.080;2023-03-14T04:36:48;10.60;99.90
27900;DHT22;15243;50.726;7.080;2023-03-14T04:39:15;10.70;99.90
27900;DHT22;15243;50.726;7.080;2023-03-14T04:41:43;10.70;99.90
27900;DHT22;15243;50.726;7.080;2023-03-14T04:44:10;10.80;99.90
27900;DHT22;15243;50.726;7.080;2023-03-14T04:46:37;10.70;99.90
27900;DHT22;15243;50.726;7.080;2023-03-14T04:49:04;10.60;99.90
27900;DHT22;15243;50.726;7.080;2023-03-14T04:51:31;10.40;99.90
27900;DHT22;15243;50.726;7.080;2023-03-14T04:53:57;10.30;99.90
27900;DHT22;15243;50.726;7.080;2023-03-14T04:56:24;10.20;99.90
27900;DHT22;15243;50.726;7.080;2023-03-14T04:58:51;10.30;99.90
27900;DHT22;15243;50.726;7.080;2023-03-14T05:01:18;10.20;99.90
27900;DHT22;15243;50.726;7.080;2023-03-14T05:03:45;10.20;99.90
27900;DHT22;15243;50.726;7.080;2023-03-14T05:06:12;10.20;99.90
27900;DHT22;15243;50.726;7.080;2023-03-14T05:08:39;10.20;99.90
27900;DHT22;15243;50.726;7.080;2023-03-14T05:11:06;10.40;99.90
27900;DHT22;15243;50.726;7.080;2023-03-14T05:13:33;10.30;99.90
27900;DHT22;15243;50.726;7.080;2023-03-14T05:16:08;10.30;99.90
27900;DHT22;15243;50.726;7.080;2023-03-14T05:18:35;10.30;99.90
27900;DHT22;15243;50.726;7.080;2023-03-14T05:21:02;10.30;99.90
27900;DHT22;15243;50.726;7.080;2023-03-14T05:23:29;10.30;99.90
27900;DHT22;15243;50.726;7.080;2023-03-14T05:25:56;10.20;99.90
27900;DHT22;15243;50.726;7.080;2023-03-14T05:28:23;10.20;99.90
27900;DHT22;15243;50.726;7.080;2023-03-14T05:30:50;10.20;99.90
27900;DHT22;15243;50.726;7.080;2023-03-14T05:33:17;10.20;99.90
27900;DHT22;15243;50.726;7.080;2023-03-14T05:35:44;10.20;99.90
27900;DHT22;15243;50.726;7.080;2023-03-14T05:38:10;10.10;99.90
27900;DHT22;15243;50.726;7.080;2023-03-14T05:40:37;10.10;99.90
27900;DHT22;15243;50.726;7.080;2023-03-14T05:43:04;10.10;99.90
27900;DHT22;15243;50.726;7.080;2023-03-14T05:45:31;10.00;99.90
27900;DHT22;15243;50.726;7.080;2023-03-14T05:48:01;10.00;99.90
27900;DHT22;15243;50.726;7.080;2023-03-14T05:50:28;10.10;99.90
27900;DHT22;15243;50.726;7.080;2023-03-14T05:52:54;10.10;99.90
27900;DHT22;15243;50.726;7.080;2023-03-14T05:55:21;10.10;99.90
27900;DHT22;15243;50.726;7.080;2023-03-14T05:57:48;10.10;99.90
27900;DHT22;15243;50.726;7.080;2023-03-14T06:00:15;10.00;99.90
27900;DHT22;15243;50.726;7.080;2023-03-14T06:02:42;10.00;99.90
27900;DHT22;15243;50.726;7.080;2023-03-14T06:05:09;10.10;99.90
27900;DHT22;15243;50.726;7.080;2023-03-14T06:07:36;10.20;99.90
27900;DHT22;15243;50.726;7.080;2023-03-14T06:10:03;10.10;99.90
27900;DHT22;15243;50.726;7.080;2023-03-14T06:12:30;10.10;99.90
27900;DHT22;15243;50.726;7.080;2023-03-14T06:14:57;10.10;99.90
27900;DHT22;15243;50.726;7.080;2023-03-14T06:17:24;10.00;99.90
27900;DHT22;15243;50.726;7.080;2023-03-14T06:19:50;10.00;99.90
27900;DHT22;15243;50.726;7.080;2023-03-14T06:22:17;10.00;99.90
27900;DHT22;15243;50.726;7.080;2023-03-14T06:24:45;10.00;99.90
27900;DHT22;15243;50.726;7.080;2023-03-14T06:27:12;10.00;99.90
27900;DHT22;15243;50.726;7.080;2023-03-14T06:29:39;10.00;99.90
27900;DHT22;15243;50.726;7.080;2023-03-14T06:32:06;10.10;99.90
27900;DHT22;15243;50.726;7.080;2023-03-14T06:34:33;10.10;99.90
27900;DHT22;15243;50.726;7.080;2023-03-14T06:36:59;10.00;99.90
27900;DHT22;15243;50.726;7.080;2023-03-14T06:39:26;10.10;99.90
27900;DHT22;15243;50.726;7.080;2023-03-14T06:41:53;10.10;99.90
27900;DHT22;15243;50.726;7.080;2023-03-14T06:44:20;10.10;99.90
27900;DHT22;15243;50.726;7.080;2023-03-14T06:46:47;10.10;99.90
27900;DHT22;15243;50.726;7.080;2023-03-14T06:49:14;10.20;99.90
27900;DHT22;15243;50.726;7.080;2023-03-14T06:51:40;10.20;99.90
27900;DHT22;15243;50.726;7.080;2023-03-14T06:54:07;10.30;99.90
27900;DHT22;15243;50.726;7.080;2023-03-14T06:56:34;10.30;99.90
27900;DHT22;15243;50.726;7.080;2023-03-14T06:59:01;10.30;99.90
27900;DHT22;15243;50.726;7.080;2023-03-14T07:01:29;10.40;99.90
27900;DHT22;15243;50.726;7.080;2023-03-14T07:03:56;10.50;99.90
27900;DHT22;15243;50.726;7.080;2023-03-14T07:06:24;10.60;99.90
27900;DHT22;15243;50.726;7.080;2023-03-14T07:08:51;10.70;99.90
27900;DHT22;15243;50.726;7.080;2023-03-14T07:11:18;10.80;99.90
27900;DHT22;15243;50.726;7.080;2023-03-14T07:13:45;10.80;99.90
27900;DHT22;15243;50.726;7.080;2023-03-14T07:16:12;10.90;99.90
27900;DHT22;15243;50.726;7.080;2023-03-14T07:18:39;10.90;99.90
27900;DHT22;15243;50.726;7.080;2023-03-14T07:21:06;10.90;99.90
27900;DHT22;15243;50.726;7.080;2023-03-14T07:23:35;10.90;99.90
27900;DHT22;15243;50.726;7.080;2023-03-14T07:26:02;10.90;99.90
27900;DHT22;15243;50.726;7.080;2023-03-14T07:28:29;11.00;99.90
27900;DHT22;15243;50.726;7.080;2023-03-14T07:30:56;11.00;99.90
27900;DHT22;15243;50.726;7.080;2023-03-14T07:33:23;11.00;99.90
27900;DHT22;15243;50.726;7.080;2023-03-14T07:35:50;11.10;99.90
27900;DHT22;15243;50.726;7.080;2023-03-14T07:38:17;11.20;99.90
27900;DHT22;15243;50.726;7.080;2023-03-14T07:40:48;11.20;99.90
27900;DHT22;15243;50.726;7.080;2023-03-14T07:43:15;11.20;99.90
27900;DHT22;15243;50.726;7.080;2023-03-14T07:45:45;11.20;99.90
27900;DHT22;15243;50.726;7.080;2023-03-14T07:48:17;11.30;99.90
27900;DHT22;15243;50.726;7.080;2023-03-14T07:50:44;11.50;99.90
27900;DHT22;15243;50.726;7.080;2023-03-14T07:53:10;11.70;99.90
27900;DHT22;15243;50.726;7.080;2023-03-14T07:55:39;12.00;99.90
27900;DHT22;15243;50.726;7.080;2023-03-14T07:58:05;11.90;99.90
27900;DHT22;15243;50.726;7.080;2023-03-14T08:00:33;12.10;99.90
27900;DHT22;15243;50.726;7.080;2023-03-14T08:02:59;12.10;99.90
27900;DHT22;15243;50.726;7.080;2023-03-14T08:05:26;12.10;99.90
27900;DHT22;15243;50.726;7.080;2023-03-14T08:07:53;12.20;99.90
27900;DHT22;15243;50.726;7.080;2023-03-14T08:10:21;12.30;99.90
27900;DHT22;15243;50.726;7.080;2023-03-14T08:12:54;12.30;99.90
27900;DHT22;15243;50.726;7.080;2023-03-14T08:15:22;12.20;99.90
27900;DHT22;15243;50.726;7.080;2023-03-14T08:17:49;12.30;99.90
27900;DHT22;15243;50.726;7.080;2023-03-14T08:20:18;12.50;99.90
27900;DHT22;15243;50.726;7.080;2023-03-14T08:22:45;12.50;99.90
27900;DHT22;15243;50.726;7.080;2023-03-14T08:25:12;12.60;99.90
27900;DHT22;15243;50.726;7.080;2023-03-14T08:27:39;12.50;99.90
27900;DHT22;15243;50.726;7.080;2023-03-14T08:30:13;12.30;99.90
27900;DHT22;15243;50.726;7.080;2023-03-14T08:32:40;12.20;99.90
27900;DHT22;15243;50.726;7.080;2023-03-14T08:35:08;12.30;99.90
27900;DHT22;15243;50.726;7.080;2023-03-14T08:37:35;12.60;99.90
27900;DHT22;15243;50.726;7.080;2023-03-14T08:40:04;12.50;99.90
27900;DHT22;15243;50.726;7.080;2023-03-14T08:42:37;12.40;99.90
27900;DHT22;15243;50.726;7.080;2023-03-14T08:45:06;12.50;99.90
27900;DHT22;15243;50.726;7.080;2023-03-14T08:47:33;12.40;99.90
27900;DHT22;15243;50.726;7.080;2023-03-14T08:50:00;12.40;99.90
27900;DHT22;15243;50.726;7.080;2023-03-14T08:52:27;12.60;99.90
27900;DHT22;15243;50.726;7.080;2023-03-14T08:54:54;12.60;99.90
27900;DHT22;15243;50.726;7.080;2023-03-14T08:57:21;12.60;99.90
27900;DHT22;15243;50.726;7.080;2023-03-14T08:59:48;12.80;99.90
27900;DHT22;15243;50.726;7.080;2023-03-14T09:02:15;12.70;99.90
27900;DHT22;15243;50.726;7.080;2023-03-14T09:04:42;12.90;99.90
27900;DHT22;15243;50.726;7.080;2023-03-14T09:07:09;12.70;99.90
27900;DHT22;15243;50.726;7.080;2023-03-14T09:09:36;12.80;99.90
27900;DHT22;15243;50.726;7.080;2023-03-14T09:12:03;12.60;99.90
27900;DHT22;15243;50.726;7.080;2023-03-14T09:14:31;12.40;99.90
27900;DHT22;15243;50.726;7.080;2023-03-14T09:16:58;12.20;99.90
27900;DHT22;15243;50.726;7.080;2023-03-14T09:19:25;12.00;99.90
27900;DHT22;15243;50.726;7.080;2023-03-14T09:21:52;11.80;99.90
27900;DHT22;15243;50.726;7.080;2023-03-14T09:24:19;11.70;99.90
27900;DHT22;15243;50.726;7.080;2023-03-14T09:26:46;11.60;99.90
27900;DHT22;15243;50.726;7.080;2023-03-14T09:29:13;11.70;99.90
27900;DHT22;15243;50.726;7.080;2023-03-14T09:31:40;11.70;99.90
27900;DHT22;15243;50.726;7.080;2023-03-14T09:34:07;11.80;99.90
27900;DHT22;15243;50.726;7.080;2023-03-14T09:36:34;11.90;99.90
27900;DHT22;15243;50.726;7.080;2023-03-14T09:39:00;11.90;99.90
27900;DHT22;15243;50.726;7.080;2023-03-14T09:41:31;11.80;99.90
27900;DHT22;15243;50.726;7.080;2023-03-14T09:44:10;11.70;99.90
27900;DHT22;15243;50.726;7.080;2023-03-14T09:46:39;11.60;99.90
27900;DHT22;15243;50.726;7.080;2023-03-14T09:51:58;11.30;99.90
27900;DHT22;15243;50.726;7.080;2023-03-14T09:54:38;11.40;99.90
27900;DHT22;15243;50.726;7.080;2023-03-14T09:57:08;11.30;99.90
27900;DHT22;15243;50.726;7.080;2023-03-14T09:59:38;10.80;99.90
27900;DHT22;15243;50.726;7.080;2023-03-14T10:02:21;10.00;99.90
27900;DHT22;15243;50.726;7.080;2023-03-14T10:04:50;9.40;99.90
27900;DHT22;15243;50.726;7.080;2023-03-14T10:07:28;9.20;99.90
27900;DHT22;15243;50.726;7.080;2023-03-14T10:09:56;9.10;99.90
27900;DHT22;15243;50.726;7.080;2023-03-14T10:12:37;9.00;99.90
27900;DHT22;15243;50.726;7.080;2023-03-14T10:15:09;8.90;99.90
27900;DHT22;15243;50.726;7.080;2023-03-14T10:17:49;8.70;99.90
27900;DHT22;15243;50.726;7.080;2023-03-14T10:20:39;8.70;99.90
27900;DHT22;15243;50.726;7.080;2023-03-14T10:25:41;8.50;99.90
27900;DHT22;15243;50.726;7.080;2023-03-14T10:28:30;8.40;99.90
27900;DHT22;15243;50.726;7.080;2023-03-14T10:30:58;8.40;99.90
27900;DHT22;15243;50.726;7.080;2023-03-14T10:33:27;8.40;99.90
27900;DHT22;15243;50.726;7.080;2023-03-14T10:38:43;8.50;99.90
27900;DHT22;15243;50.726;7.080;2023-03-14T10:41:40;8.50;99.90
27900;DHT22;15243;50.726;7.080;2023-03-14T10:44:09;8.50;99.90
27900;DHT22;15243;50.726;7.080;2023-03-14T10:46:37;8.40;99.90
27900;DHT22;15243;50.726;7.080;2023-03-14T10:49:06;8.30;99.90
27900;DHT22;15243;50.726;7.080;2023-03-14T10:51:33;8.30;99.90
27900;DHT22;15243;50.726;7.080;2023-03-14T10:54:03;8.30;99.90
27900;DHT22;15243;50.726;7.080;2023-03-14T10:56:35;8.30;99.90
27900;DHT22;15243;50.726;7.080;2023-03-14T10:59:06;8.40;99.90
27900;DHT22;15243;50.726;7.080;2023-03-14T11:02:00;8.50;99.90
27900;DHT22;15243;50.726;7.080;2023-03-14T11:07:42;8.60;99.90
27900;DHT22;15243;50.726;7.080;2023-03-14T11:13:04;8.50;99.90
27900;DHT22;15243;50.726;7.080;2023-03-14T11:15:51;8.30;99.90
27900;DHT22;15243;50.726;7.080;2023-03-14T11:21:54;8.40;99.90
27900;DHT22;15243;50.726;7.080;2023-03-14T11:30:23;8.50;99.90
27900;DHT22;15243;50.726;7.080;2023-03-14T11:35:55;8.50;99.90
27900;DHT22;15243;50.726;7.080;2023-03-14T11:38:38;8.40;99.90
27900;DHT22;15243;50.726;7.080;2023-03-14T11:41:14;8.60;99.90
27900;DHT22;15243;50.726;7.080;2023-03-14T11:43:47;9.00;99.90
27900;DHT22;15243;50.726;7.080;2023-03-14T11:46:20;9.40;99.90
27900;DHT22;15243;50.726;7.080;2023-03-14T11:51:37;9.60;99.90
27900;DHT22;15243;50.726;7.080;2023-03-14T11:56:45;9.20;99.90
27900;DHT22;15243;50.726;7.080;2023-03-14T11:59:21;9.30;99.90
27900;DHT22;15243;50.726;7.080;2023-03-14T12:01:55;9.30;99.90
27900;DHT22;15243;50.726;7.080;2023-03-14T12:04:40;9.60;99.90
27900;DHT22;15243;50.726;7.080;2023-03-14T12:07:19;9.80;99.90
27900;DHT22;15243;50.726;7.080;2023-03-14T12:09:48;9.80;99.90
27900;DHT22;15243;50.726;7.080;2023-03-14T12:12:20;9.60;99.90
27900;DHT22;15243;50.726;7.080;2023-03-14T12:15:02;9.60;99.90
27900;DHT22;15243;50.726;7.080;2023-03-14T12:17:40;9.40;99.90
27900;DHT22;15243;50.726;7.080;2023-03-14T12:20:21;8.80;99.90
27900;DHT22;15243;50.726;7.080;2023-03-14T12:22:55;8.00;99.90
27900;DHT22;15243;50.726;7.080;2023-03-14T12:25:25;7.40;99.90
27900;DHT22;15243;50.726;7.080;2023-03-14T12:31:00;7.10;99.90
27900;DHT22;15243;50.726;7.080;2023-03-14T12:33:27;6.80;99.90
27900;DHT22;15243;50.726;7.080;2023-03-14T12:35:59;6.80;99.90
27900;DHT22;15243;50.726;7.080;2023-03-14T12:43:53;6.90;99.90
27900;DHT22;15243;50.726;7.080;2023-03-14T12:46:25;6.90;99.90
27900;DHT22;15243;50.726;7.080;2023-03-14T12:49:05;7.00;99.90
27900;DHT22;15243;50.726;7.080;2023-03-14T12:51:39;7.10;99.90
27900;DHT22;15243;50.726;7.080;2023-03-14T12:56:51;7.30;99.90
27900;DHT22;15243;50.726;7.080;2023-03-14T13:01:59;7.50;99.90
27900;DHT22;15243;50.726;7.080;2023-03-14T13:04:34;7.50;99.90
27900;DHT22;15243;50.726;7.080;2023-03-14T13:07:31;7.40;99.90
27900;DHT22;15243;50.726;7.080;2023-03-14T13:12:54;7.60;99.90
27900;DHT22;15243;50.726;7.080;2023-03-14T13:15:33;7.80;99.90
27900;DHT22;15243;50.726;7.080;2023-03-14T13:20:41;7.70;99.90
27900;DHT22;15243;50.726;7.080;2023-03-14T13:23:40;7.40;99.90
27900;DHT22;15243;50.726;7.080;2023-03-14T13:26:14;7.50;99.90
27900;DHT22;15243;50.726;7.080;2023-03-14T13:28:41;7.50;99.90
27900;DHT22;15243;50.726;7.080;2023-03-14T13:31:38;7.50;99.90
27900;DHT22;15243;50.726;7.080;2023-03-14T13:34:12;7.10;99.90
27900;DHT22;15243;50.726;7.080;2023-03-14T13:36:39;6.80;99.90
27900;DHT22;15243;50.726;7.080;2023-03-14T13:39:20;6.80;99.90
27900;DHT22;15243;50.726;7.080;2023-03-14T13:41:52;6.70;99.90
27900;DHT22;15243;50.726;7.080;2023-03-14T13:44:27;6.70;99.90
27900;DHT22;15243;50.726;7.080;2023-03-14T13:47:01;6.70;99.90
27900;DHT22;15243;50.726;7.080;2023-03-14T13:49:30;6.60;99.90
27900;DHT22;15243;50.726;7.080;2023-03-14T13:51:59;6.50;99.90
27900;DHT22;15243;50.726;7.080;2023-03-14T13:54:27;6.30;99.90
27900;DHT22;15243;50.726;7.080;2023-03-14T13:57:05;6.30;99.90
27900;DHT22;15243;50.726;7.080;2023-03-14T13:59:34;6.30;99.90
27900;DHT22;15243;50.726;7.080;2023-03-14T14:02:12;6.50;99.90
27900;DHT22;15243;50.726;7.080;2023-03-14T14:04:44;6.50;99.90
27900;DHT22;15243;50.726;7.080;2023-03-14T14:07:16;6.60;99.90
27900;DHT22;15243;50.726;7.080;2023-03-14T14:09:51;6.50;99.90
27900;DHT22;15243;50.726;7.080;2023-03-14T14:12:32;6.50;99.90
27900;DHT22;15243;50.726;7.080;2023-03-14T14:15:02;6.40;99.90
27900;DHT22;15243;50.726;7.080;2023-03-14T14:17:35;6.30;99.90
27900;DHT22;15243;50.726;7.080;2023-03-14T14:20:06;6.30;99.90
27900;DHT22;15243;50.726;7.080;2023-03-14T14:22:34;6.20;99.90
27900;DHT22;15243;50.726;7.080;2023-03-14T14:25:01;6.00;99.90
27900;DHT22;15243;50.726;7.080;2023-03-14T14:27:41;5.70;99.90
27900;DHT22;15243;50.726;7.080;2023-03-14T14:32:49;5.40;99.90
27900;DHT22;15243;50.726;7.080;2023-03-14T14:35:34;5.40;99.90
27900;DHT22;15243;50.726;7.080;2023-03-14T14:38:02;5.40;99.90
27900;DHT22;15243;50.726;7.080;2023-03-14T14:40:47;5.40;99.90
27900;DHT22;15243;50.726;7.080;2023-03-14T14:43:22;5.40;99.90
27900;DHT22;15243;50.726;7.080;2023-03-14T14:45:52;5.40;99.90
27900;DHT22;15243;50.726;7.080;2023-03-14T14:48:23;5.40;99.90
27900;DHT22;15243;50.726;7.080;2023-03-14T14:50:59;5.40;99.90
27900;DHT22;15243;50.726;7.080;2023-03-14T14:53:30;5.50;99.90
27900;DHT22;15243;50.726;7.080;2023-03-14T14:55:59;5.60;99.90
27900;DHT22;15243;50.726;7.080;2023-03-14T14:58:35;5.70;99.90
27900;DHT22;15243;50.726;7.080;2023-03-14T15:01:13;5.60;99.90
27900;DHT22;15243;50.726;7.080;2023-03-14T15:03:46;5.70;99.90
27900;DHT22;15243;50.726;7.080;2023-03-14T15:06:14;5.70;99.90
27900;DHT22;15243;50.726;7.080;2023-03-14T15:08:46;5.80;99.90
27900;DHT22;15243;50.726;7.080;2023-03-14T15:11:20;5.80;99.90
27900;DHT22;15243;50.726;7.080;2023-03-14T15:13:52;5.80;99.90
27900;DHT22;15243;50.726;7.080;2023-03-14T15:16:25;5.80;99.90
27900;DHT22;15243;50.726;7.080;2023-03-14T15:18:57;5.70;99.90
27900;DHT22;15243;50.726;7.080;2023-03-14T15:21:26;5.50;99.90
27900;DHT22;15243;50.726;7.080;2023-03-14T15:23:54;5.40;99.90
27900;DHT22;15243;50.726;7.080;2023-03-14T15:26:23;5.60;99.90
27900;DHT22;15243;50.726;7.080;2023-03-14T15:28:51;5.60;99.90
27900;DHT22;15243;50.726;7.080;2023-03-14T15:31:18;5.60;99.90
27900;DHT22;15243;50.726;7.080;2023-03-14T15:33:46;5.60;99.90
27900;DHT22;15243;50.726;7.080;2023-03-14T15:38:52;5.30;99.90
27900;DHT22;15243;50.726;7.080;2023-03-14T15:43:58;5.20;99.90
27900;DHT22;15243;50.726;7.080;2023-03-14T15:46:25;5.20;99.90
27900;DHT22;15243;50.726;7.080;2023-03-14T15:48:53;5.30;99.90
27900;DHT22;15243;50.726;7.080;2023-03-14T15:51:20;5.40;99.90
27900;DHT22;15243;50.726;7.080;2023-03-14T15:53:47;5.30;99.90
27900;DHT22;15243;50.726;7.080;2023-03-14T15:56:16;5.30;99.90
27900;DHT22;15243;50.726;7.080;2023-03-14T15:58:44;5.40;99.90
27900;DHT22;15243;50.726;7.080;2023-03-14T16:01:15;5.30;99.90
27900;DHT22;15243;50.726;7.080;2023-03-14T16:03:45;5.50;99.90
27900;DHT22;15243;50.726;7.080;2023-03-14T16:06:13;5.50;99.90
27900;DHT22;15243;50.726;7.080;2023-03-14T16:08:41;5.50;99.90
27900;DHT22;15243;50.726;7.080;2023-03-14T16:11:10;5.40;99.90
27900;DHT22;15243;50.726;7.080;2023-03-14T16:13:37;5.40;99.90
27900;DHT22;15243;50.726;7.080;2023-03-14T16:16:05;5.40;99.90
27900;DHT22;15243;50.726;7.080;2023-03-14T16:18:35;5.30;99.90
27900;DHT22;15243;50.726;7.080;2023-03-14T16:21:13;5.40;99.90
27900;DHT22;15243;50.726;7.080;2023-03-14T16:23:41;5.50;99.90
27900;DHT22;15243;50.726;7.080;2023-03-14T16:26:11;5.50;99.90
27900;DHT22;15243;50.726;7.080;2023-03-14T16:28:39;5.40;99.90
27900;DHT22;15243;50.726;7.080;2023-03-14T16:31:08;5.30;99.90
27900;DHT22;15243;50.726;7.080;2023-03-14T16:33:37;5.30;99.90
27900;DHT22;15243;50.726;7.080;2023-03-14T16:36:06;5.40;99.90
27900;DHT22;15243;50.726;7.080;2023-03-14T16:38:35;5.50;99.90
27900;DHT22;15243;50.726;7.080;2023-03-14T16:41:14;5.30;99.90
27900;DHT22;15243;50.726;7.080;2023-03-14T16:43:41;5.40;99.90
27900;DHT22;15243;50.726;7.080;2023-03-14T16:46:15;5.50;99.90
27900;DHT22;15243;50.726;7.080;2023-03-14T16:48:43;5.50;99.90
27900;DHT22;15243;50.726;7.080;2023-03-14T16:51:10;5.50;99.90
27900;DHT22;15243;50.726;7.080;2023-03-14T16:53:39;5.50;99.90
27900;DHT22;15243;50.726;7.080;2023-03-14T16:56:06;5.50;99.90